Time;durP1;ratioP1;P1;durP2;ratioP2;P2;SDS_P1;SDS_P2;PMS_P1;PMS_P2;Temp;Humidity;BMP_temperature;BMP_pressure;BME280_temperature;BME280_humidity;BME280_pressure;Samples;Min_cycle;Max_cycle;Signal;HPM_P1;HPM_P2
2024/01/28 00:01:14;;;;;;;5.23;3.70;;;13.30;95.90;;;;;;4960693;28;20262;-7
2024/01/28 00:03:43;;;;;;;4.83;3.20;;;13.30;95.90;;;;;;4971060;28;20225;-6
2024/01/28 00:06:36;;;;;;;4.50;3.10;;;13.30;96.20;;;;;;4993083;28;20654;-7
2024/01/28 00:09:04;;;;;;;5.57;3.30;;;13.30;95.90;;;;;;5033447;28;20586;-5
2024/01/28 00:11:43;;;;;;;4.00;3.50;;;13.30;95.90;;;;;;5032633;28;20197;-6
2024/01/28 00:14:11;;;;;;;4.50;3.10;;;13.30;95.90;;;;;;5015386;28;20193;-7
2024/01/28 00:17:08;;;;;;;4.60;3.37;;;13.30;95.90;;;;;;5033416;28;20262;-6
2024/01/28 00:20:01;;;;;;;5.17;3.30;;;13.30;95.90;;;;;;5033746;28;20556;-8
2024/01/28 00:22:51;;;;;;;3.70;3.00;;;13.30;95.90;;;;;;5034452;28;20174;-6
2024/01/28 00:25:23;;;;;;;3.83;3.10;;;13.30;95.90;;;;;;5034171;28;20239;-6
2024/01/28 00:28:23;;;;;;;4.73;3.30;;;13.30;95.80;;;;;;5032969;28;20208;-8
2024/01/28 00:34:34;;;;;;;4.77;3.10;;;13.30;95.80;;;;;;5031612;28;20219;-6
2024/01/28 00:37:32;;;;;;;4.10;3.03;;;13.20;95.70;;;;;;4966673;28;20195;-6
2024/01/28 00:40:25;;;;;;;3.87;3.10;;;13.30;95.70;;;;;;5035255;28;20192;-7
2024/01/28 00:45:57;;;;;;;4.27;3.03;;;13.30;95.70;;;;;;5036854;28;20180;-6
2024/01/28 00:48:32;;;;;;;4.20;3.17;;;13.20;95.60;;;;;;5019775;28;20209;-6
2024/01/28 00:57:51;;;;;;;4.20;2.63;;;13.20;95.60;;;;;;4994066;28;20197;-6
2024/01/28 01:00:19;;;;;;;3.50;2.87;;;13.20;95.50;;;;;;4994063;28;20228;-6
2024/01/28 01:03:19;;;;;;;3.47;2.60;;;13.20;95.50;;;;;;5017595;28;20243;-7
2024/01/28 01:06:03;;;;;;;3.37;2.60;;;13.20;95.50;;;;;;5019062;28;20200;-6
2024/01/28 01:09:16;;;;;;;2.80;2.47;;;13.20;95.50;;;;;;5036958;28;20204;-7
2024/01/28 01:12:20;;;;;;;3.77;2.70;;;13.20;95.50;;;;;;4954393;29;20203;-6
2024/01/28 01:15:36;;;;;;;3.23;2.60;;;13.20;95.50;;;;;;4931753;28;20234;-5
2024/01/28 01:18:20;;;;;;;3.23;2.57;;;13.20;95.50;;;;;;4955448;29;20184;-7
2024/01/28 01:21:00;;;;;;;4.63;2.60;;;13.20;95.40;;;;;;4954354;29;20183;-7
2024/01/28 01:26:27;;;;;;;3.33;2.40;;;13.20;95.40;;;;;;4944349;29;20395;-6
2024/01/28 01:29:11;;;;;;;3.27;2.53;;;13.20;95.40;;;;;;4991146;28;20195;-5
2024/01/28 01:32:28;;;;;;;4.33;2.70;;;13.20;95.40;;;;;;5031858;28;20206;-7
2024/01/28 01:35:29;;;;;;;3.23;2.50;;;13.20;95.40;;;;;;5027770;28;20294;-7
2024/01/28 01:41:44;;;;;;;3.70;2.90;;;13.20;95.40;;;;;;5032405;28;20284;-7
2024/01/28 01:44:49;;;;;;;4.73;2.80;;;13.10;95.30;;;;;;5033834;28;20169;-7
2024/01/28 01:47:24;;;;;;;2.90;2.60;;;13.10;95.30;;;;;;4954834;29;20750;-9
2024/01/28 01:49:54;;;;;;;2.90;2.37;;;13.10;95.30;;;;;;5034998;28;20596;-7
2024/01/28 01:52:35;;;;;;;3.17;2.40;;;13.10;95.30;;;;;;5035326;28;20395;-6
2024/01/28 01:55:08;;;;;;;4.07;2.83;;;13.10;95.30;;;;;;5036236;28;20178;-8
2024/01/28 02:07:26;;;;;;;3.00;2.40;;;13.10;95.20;;;;;;4974398;28;20202;-7
2024/01/28 02:10:13;;;;;;;3.10;2.33;;;13.10;95.20;;;;;;4953946;28;20200;-5
2024/01/28 02:13:03;;;;;;;2.93;2.27;;;13.10;95.20;;;;;;4974677;28;20605;-6
2024/01/28 02:15:47;;;;;;;4.50;2.47;;;13.10;95.20;;;;;;4974562;28;20190;-7
2024/01/28 02:18:19;;;;;;;3.77;2.60;;;13.10;95.20;;;;;;4974202;28;20193;-6
2024/01/28 02:21:14;;;;;;;2.63;2.30;;;13.10;95.20;;;;;;4974146;28;20185;-7
2024/01/28 02:24:07;;;;;;;2.40;2.07;;;13.10;95.20;;;;;;4936832;29;20203;-8
2024/01/28 02:26:48;;;;;;;2.50;2.13;;;13.00;95.10;;;;;;4936598;29;20701;-7
2024/01/28 02:29:40;;;;;;;2.47;2.23;;;13.00;95.10;;;;;;4935619;29;20227;-6
2024/01/28 02:35:40;;;;;;;2.50;2.07;;;13.00;95.10;;;;;;4969535;28;20197;-7
2024/01/28 02:38:30;;;;;;;3.00;2.33;;;13.00;95.10;;;;;;4994162;28;20668;-7
2024/01/28 02:41:17;;;;;;;2.43;2.10;;;13.00;95.00;;;;;;4977025;28;20193;-7
2024/01/28 02:44:07;;;;;;;2.40;2.00;;;13.00;95.00;;;;;;4989237;28;20277;-7
2024/01/28 02:46:35;;;;;;;3.17;2.33;;;13.00;95.00;;;;;;4973710;28;20363;-6
2024/01/28 02:49:07;;;;;;;2.30;2.00;;;13.00;95.00;;;;;;4989272;28;20619;-7
2024/01/28 02:55:20;;;;;;;3.07;2.10;;;13.00;95.00;;;;;;4949127;28;20283;-6
2024/01/28 02:58:03;;;;;;;2.23;2.03;;;13.00;95.00;;;;;;4988595;28;20185;-6
2024/01/28 03:00:57;;;;;;;3.10;2.17;;;13.00;95.00;;;;;;4963092;28;20220;-6
2024/01/28 03:07:06;;;;;;;2.63;2.23;;;13.00;94.90;;;;;;4972265;28;20267;-7
2024/01/28 03:10:20;;;;;;;2.17;1.83;;;12.90;94.80;;;;;;4973549;28;20282;-8
2024/01/28 03:13:06;;;;;;;2.60;2.10;;;13.00;94.90;;;;;;4955082;28;20610;-8
2024/01/28 03:15:50;;;;;;;2.47;2.00;;;13.00;94.90;;;;;;4955906;28;20184;-6
2024/01/28 03:19:18;;;;;;;2.90;2.20;;;13.00;94.90;;;;;;4955893;29;20184;-9
2024/01/28 03:22:17;;;;;;;2.50;1.90;;;13.00;94.80;;;;;;4880450;29;20201;-7
2024/01/28 03:28:17;;;;;;;2.80;1.97;;;13.00;94.80;;;;;;4879576;29;20287;-6
2024/01/28 03:31:26;;;;;;;2.60;2.00;;;13.00;94.80;;;;;;4879962;29;20188;-7
2024/01/28 03:34:24;;;;;;;1.70;1.60;;;13.00;94.80;;;;;;4895596;29;20181;-6
2024/01/28 03:37:02;;;;;;;2.47;2.17;;;13.00;94.80;;;;;;4912164;29;20549;-6
2024/01/28 03:40:29;;;;;;;2.20;2.00;;;13.00;94.80;;;;;;4903149;29;20479;-7
2024/01/28 03:43:18;;;;;;;2.70;1.90;;;12.90;94.70;;;;;;4913638;29;20189;-6
2024/01/28 03:46:11;;;;;;;2.07;1.80;;;12.90;94.70;;;;;;4916887;29;20203;-8
2024/01/28 03:48:39;;;;;;;2.10;1.77;;;12.90;94.70;;;;;;4916070;29;20573;-7
2024/01/28 03:51:48;;;;;;;2.63;1.63;;;12.90;94.70;;;;;;4917093;29;20180;-6
2024/01/28 03:54:51;;;;;;;2.73;1.90;;;13.00;94.70;;;;;;4915554;29;20196;-6
2024/01/28 03:57:51;;;;;;;2.77;2.00;;;12.90;94.70;;;;;;4933045;29;20334;-7
2024/01/28 04:00:28;;;;;;;2.27;1.80;;;13.00;94.70;;;;;;4899897;29;20202;-7
2024/01/28 04:03:12;;;;;;;2.47;1.90;;;12.90;94.60;;;;;;4916043;29;20303;-6
2024/01/28 04:06:20;;;;;;;1.70;1.60;;;12.90;94.60;;;;;;4917692;29;20195;-7
2024/01/28 04:08:39;;;;;;;2.07;1.70;;;12.90;94.50;;;;;;4919249;29;20299;-6
2024/01/28 04:11:16;;;;;;;1.60;1.50;;;12.90;94.60;;;;;;4919436;29;20575;-7
2024/01/28 04:13:55;;;;;;;2.37;1.77;;;12.90;94.60;;;;;;4914972;29;20299;-7
2024/01/28 04:16:33;;;;;;;2.00;1.67;;;12.90;94.50;;;;;;4939036;29;20482;-7
2024/01/28 04:19:20;;;;;;;2.33;1.57;;;12.90;94.60;;;;;;4958466;28;20201;-9
2024/01/28 04:25:05;;;;;;;2.10;1.70;;;12.90;94.50;;;;;;4911551;29;20189;-8
2024/01/28 04:27:34;;;;;;;1.40;1.30;;;13.00;94.60;;;;;;4939594;29;20640;-7
2024/01/28 04:30:56;;;;;;;1.97;1.60;;;12.90;94.50;;;;;;4937563;29;20265;-7
2024/01/28 04:33:32;;;;;;;1.97;1.60;;;12.90;94.50;;;;;;4899919;29;20566;-6
2024/01/28 04:36:13;;;;;;;3.00;1.63;;;12.90;94.50;;;;;;4893301;29;20503;-7
2024/01/28 04:38:48;;;;;;;2.20;1.70;;;12.90;94.50;;;;;;4918271;29;20203;-7
2024/01/28 04:42:03;;;;;;;1.87;1.63;;;12.90;94.40;;;;;;4903152;29;20211;-7
2024/01/28 04:44:53;;;;;;;1.90;1.60;;;12.90;94.40;;;;;;4924306;29;20607;-6
2024/01/28 04:47:30;;;;;;;1.90;1.53;;;12.90;94.40;;;;;;4936280;29;20216;-6
2024/01/28 04:50:07;;;;;;;2.07;1.63;;;12.90;94.40;;;;;;4938020;29;20212;-7
2024/01/28 04:55:54;;;;;;;1.90;1.70;;;12.90;94.30;;;;;;4917988;29;20299;-7
2024/01/28 05:02:34;;;;;;;1.60;1.50;;;13.00;94.30;;;;;;4899594;29;20284;-6
2024/01/28 05:05:19;;;;;;;1.60;1.50;;;12.90;94.30;;;;;;4907363;29;20189;-6
2024/01/28 05:07:47;;;;;;;1.70;1.43;;;12.90;94.30;;;;;;4933122;29;20226;-7
2024/01/28 05:10:28;;;;;;;1.53;1.30;;;12.90;94.30;;;;;;4966607;28;20635;-7
2024/01/28 05:13:17;;;;;;;1.60;1.50;;;12.90;94.30;;;;;;4994130;28;20224;-5
2024/01/28 05:16:24;;;;;;;2.20;1.60;;;12.90;94.30;;;;;;4978515;28;20173;-7
2024/01/28 05:19:08;;;;;;;1.60;1.27;;;12.90;94.30;;;;;;4916877;29;20240;-7
2024/01/28 05:21:58;;;;;;;2.10;1.60;;;12.90;94.30;;;;;;4994789;28;20193;-7
2024/01/28 05:24:50;;;;;;;2.10;1.50;;;12.90;94.20;;;;;;5028701;28;20197;-7
2024/01/28 05:27:30;;;;;;;2.10;1.47;;;12.90;94.20;;;;;;5018526;28;20251;-7
2024/01/28 05:30:11;;;;;;;2.57;1.40;;;12.90;94.20;;;;;;5035838;28;20576;-7
2024/01/28 05:32:43;;;;;;;2.07;1.50;;;12.90;94.20;;;;;;5018045;28;20172;-7
2024/01/28 05:41:44;;;;;;;2.03;1.53;;;12.90;94.10;;;;;;4957489;29;20281;-7
2024/01/28 05:44:31;;;;;;;1.40;1.30;;;12.90;94.20;;;;;;4956590;29;20196;-6
2024/01/28 05:47:30;;;;;;;1.40;1.30;;;12.90;94.10;;;;;;4957402;29;20269;-7
2024/01/28 05:50:20;;;;;;;1.67;1.40;;;12.90;94.20;;;;;;4956473;28;20229;-6
2024/01/28 05:52:46;;;;;;;1.83;1.20;;;12.80;94.10;;;;;;4940664;29;20179;-7
2024/01/28 05:55:30;;;;;;;1.57;1.40;;;12.80;94.20;;;;;;4966251;28;20300;-7
2024/01/28 05:58:33;;;;;;;1.53;1.40;;;12.80;94.20;;;;;;5019325;28;20204;-6
2024/01/28 06:04:42;;;;;;;1.60;1.40;;;12.90;94.10;;;;;;5035966;28;20536;-7
2024/01/28 06:07:46;;;;;;;1.53;1.43;;;12.80;94.10;;;;;;5018048;28;20215;-8
2024/01/28 06:10:17;;;;;;;1.50;1.40;;;12.80;94.10;;;;;;5035507;28;20181;-6
2024/01/28 06:12:52;;;;;;;1.77;1.37;;;12.80;94.40;;;;;;5035412;28;20237;-7
2024/01/28 06:15:36;;;;;;;1.40;1.30;;;12.80;94.10;;;;;;5036610;28;20219;-8
2024/01/28 06:18:30;;;;;;;1.63;1.30;;;12.80;94.10;;;;;;5035451;28;20603;-5
2024/01/28 06:21:28;;;;;;;1.43;1.30;;;12.80;94.10;;;;;;5022772;28;20208;-8
2024/01/28 06:24:44;;;;;;;1.47;1.30;;;12.80;94.00;;;;;;4999942;28;20192;-7
2024/01/28 06:27:31;;;;;;;1.50;1.30;;;12.80;94.10;;;;;;4993297;28;20551;-6
2024/01/28 06:30:21;;;;;;;1.80;1.20;;;12.80;94.10;;;;;;4992226;28;20566;-6
2024/01/28 06:33:17;;;;;;;1.40;1.30;;;12.70;94.10;;;;;;4993240;28;20272;-6
2024/01/28 06:35:51;;;;;;;1.33;1.23;;;12.80;94.10;;;;;;4993531;28;20197;-6
2024/01/28 06:38:30;;;;;;;1.60;1.40;;;12.80;94.00;;;;;;4994001;28;20215;-8
2024/01/28 06:41:02;;;;;;;1.80;1.40;;;12.80;94.00;;;;;;4976758;28;20187;-6
2024/01/28 06:43:31;;;;;;;1.50;1.40;;;12.80;94.10;;;;;;4992882;28;20256;-7
2024/01/28 06:46:24;;;;;;;1.67;1.47;;;12.80;94.10;;;;;;4993341;28;20601;-7
2024/01/28 06:48:55;;;;;;;1.40;1.30;;;12.80;94.00;;;;;;4991657;28;20215;-6
2024/01/28 06:54:58;;;;;;;1.73;1.60;;;12.70;94.00;;;;;;4974066;28;20183;-6
2024/01/28 06:57:30;;;;;;;1.60;1.40;;;12.80;94.00;;;;;;4980987;28;20399;-7
2024/01/28 07:00:21;;;;;;;1.63;1.40;;;12.70;94.00;;;;;;5032200;28;20580;-7
2024/01/28 07:03:14;;;;;;;1.67;1.40;;;12.70;94.00;;;;;;5033119;28;20171;-6
2024/01/28 07:06:03;;;;;;;1.40;1.30;;;12.70;94.00;;;;;;5013964;28;20188;-5
2024/01/28 07:08:38;;;;;;;1.60;1.37;;;12.70;94.00;;;;;;4950608;29;20197;-7
2024/01/28 07:14:30;;;;;;;1.60;1.50;;;12.70;94.00;;;;;;5014428;28;20255;-6
2024/01/28 07:17:40;;;;;;;1.43;1.27;;;12.70;94.00;;;;;;5016833;28;20269;-8
2024/01/28 07:20:40;;;;;;;1.70;1.60;;;12.70;94.00;;;;;;5016932;28;20211;-7
2024/01/28 07:23:52;;;;;;;1.77;1.43;;;12.70;94.00;;;;;;5014814;28;20200;-7
2024/01/28 07:26:26;;;;;;;1.63;1.40;;;12.70;94.00;;;;;;4951181;29;20199;-7
2024/01/28 07:29:46;;;;;;;3.23;1.87;;;12.70;94.00;;;;;;4952264;29;20179;-6
2024/01/28 07:32:13;;;;;;;2.17;1.63;;;12.70;93.90;;;;;;4951571;29;20222;-6
2024/01/28 07:35:20;;;;;;;2.07;1.67;;;12.70;94.00;;;;;;4950921;29;20535;-7
2024/01/28 07:37:45;;;;;;;1.63;1.40;;;12.60;93.90;;;;;;4931268;29;20224;-6
2024/01/28 07:40:48;;;;;;;1.87;1.60;;;12.60;93.90;;;;;;4932411;29;20502;-6
2024/01/28 07:43:44;;;;;;;1.67;1.50;;;12.60;93.90;;;;;;4952938;28;20177;-7
2024/01/28 07:46:31;;;;;;;1.50;1.40;;;12.60;93.90;;;;;;4991351;28;20183;-7
2024/01/28 07:52:02;;;;;;;2.10;1.43;;;12.60;94.00;;;;;;4990078;28;20615;-7
2024/01/28 07:54:45;;;;;;;2.70;1.80;;;12.60;94.30;;;;;;4975962;28;20241;-9
2024/01/28 07:57:20;;;;;;;3.27;1.70;;;12.60;94.30;;;;;;4975862;28;20233;-6
2024/01/28 08:03:30;;;;;;;1.83;1.53;;;12.60;94.50;;;;;;4915401;29;20219;-7
2024/01/28 08:08:48;;;;;;;2.40;1.70;;;12.60;94.60;;;;;;4877393;29;20261;-6
2024/01/28 08:11:40;;;;;;;2.43;2.00;;;12.60;94.60;;;;;;4895613;29;20198;-6
2024/01/28 08:14:05;;;;;;;2.77;1.90;;;12.60;94.60;;;;;;4872855;29;20258;-7
2024/01/28 08:16:37;;;;;;;5.00;2.00;;;12.60;94.60;;;;;;4877037;29;20197;-7
2024/01/28 08:19:04;;;;;;;1.97;1.80;;;12.60;94.60;;;;;;4878316;29;20237;-8
2024/01/28 08:21:38;;;;;;;2.53;2.03;;;12.60;94.50;;;;;;4896055;29;20213;-7
2024/01/28 08:24:27;;;;;;;2.43;1.97;;;12.60;94.50;;;;;;4895501;29;20476;-6
2024/01/28 08:27:02;;;;;;;2.60;1.90;;;12.70;94.30;;;;;;4838599;29;20212;-7
2024/01/28 08:29:39;;;;;;;2.33;2.00;;;12.70;94.20;;;;;;4888853;29;20191;-6
2024/01/28 08:32:08;;;;;;;3.47;1.80;;;12.80;93.80;;;;;;4908490;28;20280;-6
2024/01/28 08:35:10;;;;;;;2.73;1.97;;;13.00;93.40;;;;;;4994334;28;20490;-5
2024/01/28 08:37:57;;;;;;;2.30;1.80;;;13.60;91.70;;;;;;5009358;28;20217;-8
2024/01/28 08:40:31;;;;;;;2.60;1.90;;;14.20;88.70;;;;;;5008817;28;20171;-8
2024/01/28 08:43:13;;;;;;;2.70;2.00;;;14.60;85.20;;;;;;4990083;28;20219;-7
2024/01/28 08:45:42;;;;;;;2.13;1.93;;;14.90;82.40;;;;;;5007404;28;20177;-7
2024/01/28 08:48:20;;;;;;;3.17;1.80;;;15.20;79.80;;;;;;5024663;28;20192;-7
2024/01/28 08:51:01;;;;;;;2.27;1.90;;;15.30;78.10;;;;;;5031755;28;20585;-7
2024/01/28 08:53:30;;;;;;;2.20;2.00;;;15.40;76.80;;;;;;5043612;28;20176;-7
2024/01/28 08:56:11;;;;;;;2.47;2.10;;;15.50;75.60;;;;;;5055362;28;20249;-9
2024/01/28 08:58:56;;;;;;;2.27;2.00;;;15.60;74.70;;;;;;5036354;28;20215;-9
2024/01/28 09:01:30;;;;;;;3.30;2.20;;;15.60;73.80;;;;;;5054723;28;20168;-7
2024/01/28 09:04:09;;;;;;;2.40;1.93;;;15.70;73.60;;;;;;5038750;28;20180;-7
2024/01/28 09:06:54;;;;;;;3.57;2.00;;;15.80;72.30;;;;;;5037957;28;20172;-8
2024/01/28 09:09:57;;;;;;;3.83;2.10;;;15.80;71.60;;;;;;5037949;28;20183;-8
2024/01/28 09:12:28;;;;;;;2.93;2.17;;;15.90;71.00;;;;;;5055452;28;20541;-7
2024/01/28 09:15:16;;;;;;;2.10;1.90;;;15.90;70.30;;;;;;5055180;28;20172;-8
2024/01/28 09:18:24;;;;;;;2.17;1.90;;;16.00;69.90;;;;;;5038651;28;20207;-8
2024/01/28 09:24:50;;;;;;;4.30;2.30;;;16.00;69.50;;;;;;5056170;28;20187;-4
2024/01/28 09:27:06;;;;;;;3.03;2.13;;;16.00;69.60;;;;;;5045375;28;20195;-6
2024/01/28 09:29:32;;;;;;;2.77;1.97;;;16.00;69.80;;;;;;5055764;28;20184;-6
2024/01/28 09:32:01;;;;;;;2.80;2.10;;;16.00;69.90;;;;;;5057659;28;20188;-6
2024/01/28 09:34:29;;;;;;;2.63;2.10;;;16.00;70.20;;;;;;5059419;28;20176;-6
2024/01/28 09:37:14;;;;;;;4.30;2.13;;;16.00;70.40;;;;;;5041704;28;20215;-5
2024/01/28 09:43:03;;;;;;;5.40;2.20;;;15.90;71.30;;;;;;4978483;28;20219;-6
2024/01/28 09:45:38;;;;;;;3.77;2.17;;;15.80;72.00;;;;;;4979221;28;20207;-6
2024/01/28 09:48:12;;;;;;;4.27;2.30;;;15.80;72.60;;;;;;4978516;28;20239;-4
2024/01/28 09:51:06;;;;;;;6.87;2.37;;;15.70;73.20;;;;;;4979276;28;20179;-7
2024/01/28 09:53:59;;;;;;;6.47;2.03;;;15.60;73.70;;;;;;4977502;28;20194;-6
2024/01/28 09:56:30;;;;;;;4.90;2.47;;;15.50;75.50;;;;;;4978242;28;20285;-5
2024/01/28 09:59:19;;;;;;;6.57;2.40;;;15.50;75.60;;;;;;4978241;28;20209;-6
2024/01/28 10:01:44;;;;;;;4.57;2.07;;;15.40;76.20;;;;;;5041691;28;20230;-5
2024/01/28 10:04:48;;;;;;;5.37;2.67;;;15.40;76.80;;;;;;5040751;28;20174;-6
2024/01/28 10:07:53;;;;;;;5.00;2.00;;;15.30;77.30;;;;;;4958870;29;20191;-8
2024/01/28 10:10:19;;;;;;;4.13;2.13;;;15.30;77.30;;;;;;4943133;29;20187;-5
2024/01/28 10:13:09;;;;;;;5.83;2.20;;;15.20;78.20;;;;;;4958560;29;20183;-5
2024/01/28 10:16:03;;;;;;;3.97;2.10;;;15.10;79.00;;;;;;4920191;29;20578;-5
2024/01/28 10:18:28;;;;;;;6.20;2.00;;;15.00;80.00;;;;;;4943058;29;20211;-4
2024/01/28 10:21:37;;;;;;;4.33;1.97;;;14.90;80.60;;;;;;4957858;29;20214;-6
2024/01/28 10:24:18;;;;;;;8.13;1.97;;;14.90;81.30;;;;;;4958423;29;20558;-5
2024/01/28 10:27:31;;;;;;;4.20;2.13;;;14.80;81.60;;;;;;4959108;29;20612;-7
2024/01/28 10:29:59;;;;;;;10.10;2.20;;;14.80;82.00;;;;;;4980244;28;20204;-6
2024/01/28 10:32:25;;;;;;;7.43;2.23;;;14.80;82.00;;;;;;4996273;28;20473;-6
2024/01/28 10:38:25;;;;;;;2.83;1.80;;;14.80;81.80;;;;;;4976769;28;20221;-5
2024/01/28 10:40:51;;;;;;;2.37;1.67;;;14.80;81.60;;;;;;4956035;28;20187;-6
2024/01/28 10:43:47;;;;;;;3.80;2.07;;;14.90;81.30;;;;;;4976898;28;20183;-7
2024/01/28 10:46:19;;;;;;;5.83;2.10;;;14.90;81.10;;;;;;4976913;28;20187;-6
2024/01/28 10:49:07;;;;;;;3.10;1.90;;;14.90;81.00;;;;;;4979073;28;20194;-5
2024/01/28 10:51:54;;;;;;;2.97;1.63;;;14.90;80.90;;;;;;4979893;28;20186;-6
2024/01/28 10:54:41;;;;;;;4.07;1.90;;;14.90;80.70;;;;;;5041733;28;20180;-6
2024/01/28 10:57:27;;;;;;;2.80;1.80;;;14.90;80.70;;;;;;5057449;28;20203;-10
2024/01/28 11:00:10;;;;;;;2.87;2.00;;;15.00;80.50;;;;;;5040653;28;20183;-5
2024/01/28 11:02:56;;;;;;;2.70;1.70;;;15.00;80.50;;;;;;5057266;28;20171;-5
2024/01/28 11:05:27;;;;;;;4.30;1.80;;;15.00;80.60;;;;;;5033270;28;20194;-5
2024/01/28 11:08:26;;;;;;;4.27;1.93;;;15.00;80.70;;;;;;5057570;28;20172;-6
2024/01/28 11:11:16;;;;;;;2.37;1.57;;;15.00;80.70;;;;;;5057370;28;20214;-4
2024/01/28 11:13:49;;;;;;;3.63;1.60;;;15.00;81.00;;;;;;5056489;28;20631;-7
2024/01/28 11:16:30;;;;;;;4.87;1.83;;;14.90;81.10;;;;;;5057273;28;20171;-7
2024/01/28 11:19:17;;;;;;;3.80;1.67;;;15.00;81.20;;;;;;5057117;28;20204;-6
2024/01/28 11:22:11;;;;;;;4.50;1.90;;;15.00;81.20;;;;;;5056940;28;20324;-7
2024/01/28 11:25:13;;;;;;;2.57;1.83;;;15.00;81.00;;;;;;5056573;28;20588;-7
2024/01/28 11:27:45;;;;;;;2.63;1.60;;;15.00;81.00;;;;;;5055901;28;20206;-8
2024/01/28 11:33:41;;;;;;;6.30;1.93;;;15.00;80.50;;;;;;5001204;28;20297;-6
2024/01/28 11:36:27;;;;;;;3.60;1.70;;;15.00;80.30;;;;;;5056160;28;20192;-18
2024/01/28 11:39:11;;;;;;;3.63;1.70;;;15.00;81.00;;;;;;5055944;28;20199;-7
2024/01/28 11:41:50;;;;;;;3.27;1.70;;;15.00;80.20;;;;;;5055796;28;20182;-8
2024/01/28 11:44:19;;;;;;;2.97;1.67;;;15.00;80.10;;;;;;5039076;28;20263;-7
2024/01/28 11:47:19;;;;;;;2.70;1.60;;;15.00;80.20;;;;;;5056610;28;20258;-8
2024/01/28 11:49:48;;;;;;;4.03;1.50;;;15.00;80.00;;;;;;5038854;28;20907;-7
2024/01/28 11:52:23;;;;;;;3.93;1.40;;;15.10;79.80;;;;;;5056219;28;20191;-7
2024/01/28 11:54:58;;;;;;;5.93;2.07;;;15.00;79.70;;;;;;4994869;28;20185;-7
2024/01/28 11:57:24;;;;;;;2.87;1.47;;;15.10;79.70;;;;;;4993798;28;20316;-5
2024/01/28 11:59:55;;;;;;;4.20;1.87;;;15.00;79.70;;;;;;4995176;28;20280;-6
2024/01/28 12:02:21;;;;;;;6.07;1.90;;;15.10;79.50;;;;;;4994868;28;20185;-6
2024/01/28 12:08:01;;;;;;;2.93;1.50;;;15.10;79.60;;;;;;4956515;29;20190;-9
2024/01/28 12:10:28;;;;;;;4.00;1.43;;;15.10;79.20;;;;;;4918344;29;20206;-7
2024/01/28 12:13:00;;;;;;;1.83;1.47;;;15.10;79.50;;;;;;4929554;29;20206;-8
2024/01/28 12:16:15;;;;;;;3.50;1.40;;;15.10;79.60;;;;;;4936743;29;20200;-6
2024/01/28 12:18:44;;;;;;;3.57;1.60;;;15.00;79.70;;;;;;4929260;29;20238;-8
2024/01/28 12:21:26;;;;;;;2.73;1.60;;;15.00;79.80;;;;;;4952505;28;20194;-6
2024/01/28 12:24:15;;;;;;;2.53;1.30;;;15.00;79.90;;;;;;4995414;28;20210;-5
2024/01/28 12:27:15;;;;;;;2.07;1.40;;;15.00;80.20;;;;;;5031897;28;20195;-7
2024/01/28 12:29:47;;;;;;;2.63;1.37;;;15.00;80.20;;;;;;5042861;28;20255;-7
2024/01/28 12:32:34;;;;;;;2.43;1.33;;;15.00;80.30;;;;;;5031383;28;20742;-6
2024/01/28 12:35:06;;;;;;;1.97;1.40;;;14.90;80.40;;;;;;5042953;28;20191;-7
2024/01/28 12:37:41;;;;;;;1.57;1.20;;;14.90;80.30;;;;;;5042434;28;20204;-5
2024/01/28 12:40:39;;;;;;;2.13;1.27;;;14.90;80.20;;;;;;5042549;28;20674;-5
2024/01/28 12:43:07;;;;;;;3.93;1.30;;;14.90;80.50;;;;;;5042761;28;20209;-6
2024/01/28 12:45:39;;;;;;;1.60;1.30;;;14.90;80.60;;;;;;5059437;28;20168;-6
2024/01/28 12:48:39;;;;;;;1.47;1.23;;;14.90;80.60;;;;;;5059838;28;20191;-5
2024/01/28 12:51:43;;;;;;;1.90;1.30;;;14.90;80.70;;;;;;5031487;28;20199;-6
2024/01/28 12:54:28;;;;;;;2.20;1.20;;;14.90;80.60;;;;;;5042612;28;20175;-7
2024/01/28 12:57:20;;;;;;;1.80;1.20;;;14.90;80.60;;;;;;5058998;28;20172;-7
2024/01/28 13:00:28;;;;;;;2.27;1.63;;;14.90;80.70;;;;;;4959873;29;20191;-6
2024/01/28 13:02:59;;;;;;;4.47;1.60;;;14.90;80.80;;;;;;4958729;29;20359;-7
2024/01/28 13:06:03;;;;;;;1.70;1.33;;;14.90;80.80;;;;;;4943167;29;20191;-5
2024/01/28 13:08:37;;;;;;;2.13;1.30;;;14.90;80.90;;;;;;4958790;29;20650;-7
2024/01/28 13:11:39;;;;;;;2.20;1.27;;;14.90;81.00;;;;;;4957167;29;20195;-6
2024/01/28 13:14:43;;;;;;;1.47;1.03;;;14.90;81.10;;;;;;4942513;29;20300;-5
2024/01/28 13:17:17;;;;;;;1.93;1.27;;;14.90;81.00;;;;;;4959754;29;20229;-7
2024/01/28 13:19:50;;;;;;;2.80;1.30;;;14.90;81.40;;;;;;4958913;29;20185;-6
2024/01/28 13:22:17;;;;;;;2.07;1.27;;;14.90;81.30;;;;;;4942643;29;20636;-7
2024/01/28 13:24:53;;;;;;;2.57;1.57;;;14.90;81.30;;;;;;5045049;28;20196;-6
2024/01/28 13:30:23;;;;;;;1.40;1.17;;;14.90;81.40;;;;;;5058793;28;20187;-5
2024/01/28 13:35:59;;;;;;;1.70;1.37;;;14.90;81.50;;;;;;4974671;28;20347;-7
2024/01/28 13:38:34;;;;;;;1.70;1.20;;;14.90;81.50;;;;;;5015748;28;20329;-7
2024/01/28 13:41:05;;;;;;;1.40;1.17;;;14.90;81.60;;;;;;5016569;28;20287;-7
2024/01/28 13:43:34;;;;;;;1.67;1.20;;;14.90;81.70;;;;;;4998541;28;20191;-7
2024/01/28 13:46:06;;;;;;;1.90;1.30;;;14.90;81.50;;;;;;5016473;28;20184;-8
2024/01/28 13:48:41;;;;;;;1.30;1.20;;;14.90;81.50;;;;;;5016951;28;20192;-6
2024/01/28 13:51:06;;;;;;;2.63;1.20;;;14.90;81.50;;;;;;5016534;28;20206;-6
2024/01/28 13:53:44;;;;;;;1.73;1.20;;;14.90;81.60;;;;;;4999677;28;20234;-7
2024/01/28 13:56:19;;;;;;;1.67;1.20;;;14.90;81.60;;;;;;5000766;28;20617;-7
2024/01/28 13:58:47;;;;;;;1.60;1.30;;;14.90;81.70;;;;;;5017066;28;20227;-7
2024/01/28 14:01:26;;;;;;;1.67;1.13;;;14.90;82.00;;;;;;5001034;28;20185;-7
2024/01/28 14:04:04;;;;;;;1.67;1.30;;;14.90;82.00;;;;;;5022064;28;20196;-6
2024/01/28 14:06:33;;;;;;;1.53;1.27;;;14.90;81.90;;;;;;5041029;28;20176;-6
2024/01/28 14:09:11;;;;;;;2.53;1.43;;;14.90;81.70;;;;;;5057815;28;20207;-7
2024/01/28 14:11:42;;;;;;;2.00;1.30;;;14.90;81.80;;;;;;5057891;28;20184;-5
2024/01/28 14:14:31;;;;;;;1.33;1.20;;;14.90;81.60;;;;;;5040165;28;20190;-5
2024/01/28 14:17:08;;;;;;;1.30;1.20;;;14.90;81.60;;;;;;5040273;28;20203;-6
2024/01/28 14:19:56;;;;;;;1.37;1.20;;;14.90;81.60;;;;;;5040784;28;20179;-6
2024/01/28 14:23:06;;;;;;;1.70;1.20;;;14.90;81.50;;;;;;5056038;28;20230;-5
2024/01/28 14:25:56;;;;;;;1.60;1.13;;;14.90;81.40;;;;;;5058594;28;20542;-6
2024/01/28 14:28:35;;;;;;;1.70;1.20;;;14.90;81.60;;;;;;5021002;28;20281;-6
2024/01/28 14:31:29;;;;;;;1.70;1.30;;;14.90;81.40;;;;;;5057338;28;20180;-5
2024/01/28 14:34:09;;;;;;;1.30;1.10;;;14.90;81.60;;;;;;5057799;28;20175;-7
2024/01/28 14:36:38;;;;;;;1.37;1.10;;;14.90;81.50;;;;;;5057074;28;20475;-7
2024/01/28 14:39:09;;;;;;;2.47;1.30;;;14.90;81.40;;;;;;5056138;28;20721;-6
2024/01/28 14:41:41;;;;;;;1.23;1.13;;;14.90;81.00;;;;;;5040347;28;20572;-5
2024/01/28 14:44:27;;;;;;;1.60;1.10;;;14.90;81.00;;;;;;5057905;28;20167;-7
2024/01/28 14:47:16;;;;;;;1.30;1.13;;;14.90;80.40;;;;;;5039198;28;20262;-7
2024/01/28 14:50:00;;;;;;;1.13;1.00;;;14.90;80.10;;;;;;5056683;28;20223;-5
2024/01/28 14:52:47;;;;;;;1.77;1.33;;;14.90;80.00;;;;;;5039048;28;20172;-7
2024/01/28 14:55:13;;;;;;;1.20;1.10;;;14.90;80.10;;;;;;5056485;28;20191;-7
2024/01/28 14:57:51;;;;;;;1.23;1.07;;;14.90;80.20;;;;;;5056814;28;20200;-6
2024/01/28 15:00:37;;;;;;;6.33;1.67;;;14.90;80.30;;;;;;5055586;28;20171;-7
2024/01/28 15:03:24;;;;;;;8.60;1.90;;;15.20;69.90;;;;;;5039456;28;20802;-6
2024/01/28 15:06:08;;;;;;;4.17;1.70;;;15.70;59.10;;;;;;5038183;28;20294;-5
2024/01/28 15:08:34;;;;;;;1.50;1.07;;;16.00;56.40;;;;;;5056836;28;20250;-7
2024/01/28 15:11:03;;;;;;;2.63;1.43;;;16.20;54.60;;;;;;5056611;28;20270;-9
2024/01/28 15:13:48;;;;;;;3.43;1.30;;;16.40;53.50;;;;;;5055922;28;20172;-9
2024/01/28 15:16:18;;;;;;;2.17;1.90;;;16.30;54.20;;;;;;5054535;28;20176;-9
2024/01/28 15:18:56;;;;;;;7.23;6.70;;;16.10;56.40;;;;;;5038204;28;20246;-9
2024/01/28 15:21:30;;;;;;;1.63;1.40;;;15.90;56.50;;;;;;5055347;28;20182;-7
2024/01/28 15:24:27;;;;;;;3.20;1.43;;;15.80;57.10;;;;;;5051178;28;20761;-7
2024/01/28 15:26:59;;;;;;;8.10;1.20;;;15.70;56.30;;;;;;5055897;28;20809;-7
2024/01/28 15:29:36;;;;;;;4.37;1.20;;;15.60;56.60;;;;;;5038582;28;20589;-7
2024/01/28 15:32:05;;;;;;;8.57;1.93;;;15.50;56.20;;;;;;5033725;28;20592;-8
2024/01/28 15:34:30;;;;;;;4.50;3.47;;;15.40;56.20;;;;;;5055579;28;20171;-6
2024/01/28 15:39:54;;;;;;;17.80;9.00;;;15.30;56.60;;;;;;5031528;28;20198;-8
2024/01/28 15:42:25;;;;;;;21.60;8.10;;;15.30;57.10;;;;;;5037086;28;20207;-6
2024/01/28 15:44:51;;;;;;;13.30;6.87;;;15.60;59.40;;;;;;5056258;28;20201;-6
2024/01/28 15:47:23;;;;;;;17.03;6.70;;;15.80;62.50;;;;;;5038785;28;20172;-6
2024/01/28 15:50:26;;;;;;;12.43;6.20;;;16.00;62.70;;;;;;5039908;28;20172;-6
2024/01/28 15:53:20;;;;;;;10.03;5.23;;;16.00;62.10;;;;;;5056140;28;20222;-7
2024/01/28 15:55:49;;;;;;;10.27;5.07;;;15.90;61.90;;;;;;5038598;28;20262;-8
2024/01/28 15:59:02;;;;;;;10.40;5.70;;;15.80;62.30;;;;;;5055760;28;20213;-7
2024/01/28 16:01:24;;;;;;;14.10;6.27;;;15.80;63.40;;;;;;5049791;28;20515;-6
2024/01/28 16:03:50;;;;;;;17.63;5.87;;;15.70;64.60;;;;;;5043006;28;20181;-8
2024/01/28 16:09:04;;;;;;;15.73;7.30;;;15.70;66.50;;;;;;5036212;28;20268;-7